createdAt,value
2017-02-17T00:00:03.727Z,926.46
2017-02-17T00:00:23.517Z,926.51
2017-02-17T00:00:43.285Z,926.49
2017-02-17T00:01:03.015Z,926.49
2017-02-17T00:01:22.764Z,926.52
2017-02-17T00:01:42.531Z,926.51
2017-02-17T00:02:01.733Z,926.5
2017-02-17T00:02:20.895Z,926.51
2017-02-17T00:02:41.062Z,926.53
2017-02-17T00:03:00.787Z,926.57
2017-02-17T00:03:20.567Z,926.55
2017-02-17T00:03:40.340Z,926.6
2017-02-17T00:03:59.531Z,926.63
2017-02-17T00:04:19.304Z,926.6
2017-02-17T00:04:39.065Z,926.59
2017-02-17T00:04:58.858Z,926.61
2017-02-17T00:05:18.776Z,926.63
2017-02-17T00:05:39.173Z,926.65
2017-02-17T00:06:00.841Z,926.65
2017-02-17T00:06:20.720Z,926.61
2017-02-17T00:06:41.224Z,926.63
2017-02-17T00:07:01.740Z,926.66
2017-02-17T00:07:21.509Z,926.64
2017-02-17T00:07:42.022Z,926.6
2017-02-17T00:08:02.507Z,926.63
2017-02-17T00:08:21.647Z,926.64
2017-02-17T00:08:41.461Z,926.61
2017-02-17T00:09:01.900Z,926.6
2017-02-17T00:09:22.383Z,926.65
2017-02-17T00:09:42.926Z,926.68
2017-02-17T00:10:02.901Z,926.65
2017-02-17T00:10:22.707Z,926.66
2017-02-17T00:10:43.153Z,926.69
2017-02-17T00:11:03.642Z,926.66
2017-02-17T00:11:24.145Z,926.69
2017-02-17T00:11:44.689Z,926.7
2017-02-17T00:12:05.120Z,926.69
2017-02-17T00:12:25.670Z,926.68
2017-02-17T00:12:46.094Z,926.7
2017-02-17T00:13:06.565Z,926.69
2017-02-17T00:13:27.013Z,926.65
2017-02-17T00:13:46.795Z,926.68
2017-02-17T00:14:07.217Z,926.69
2017-02-17T00:14:27.033Z,926.72
2017-02-17T00:14:47.444Z,926.69
2017-02-17T00:15:07.892Z,926.69
2017-02-17T00:15:28.324Z,926.69
2017-02-17T00:15:48.759Z,926.72
2017-02-17T00:16:08.580Z,926.7
2017-02-17T00:16:28.975Z,926.72
2017-02-17T00:16:49.390Z,926.71
2017-02-17T00:17:09.849Z,926.72
2017-02-17T00:17:29.651Z,926.7
2017-02-17T00:17:50.058Z,926.73
2017-02-17T00:18:10.488Z,926.67
2017-02-17T00:18:30.887Z,926.66
2017-02-17T00:18:50.741Z,926.73
2017-02-17T00:19:11.187Z,926.71
2017-02-17T00:19:31.707Z,926.72
2017-02-17T00:19:51.641Z,926.73
2017-02-17T00:20:12.090Z,926.75
2017-02-17T00:20:31.899Z,926.72
2017-02-17T00:20:52.320Z,926.73
2017-02-17T00:21:12.883Z,926.72
2017-02-17T00:21:32.641Z,926.69
2017-02-17T00:21:53.099Z,926.71
2017-02-17T00:22:13.519Z,926.73
2017-02-17T00:22:33.921Z,926.74
2017-02-17T00:22:54.361Z,926.74
2017-02-17T00:23:14.164Z,926.75
2017-02-17T00:23:34.583Z,926.76
2017-02-17T00:23:55.033Z,926.72
2017-02-17T00:24:14.985Z,926.7
2017-02-17T00:24:34.205Z,926.7
2017-02-17T00:24:54.651Z,926.74
2017-02-17T00:25:14.438Z,926.74
2017-02-17T00:25:34.872Z,926.76
2017-02-17T00:25:55.294Z,926.74
2017-02-17T00:26:15.756Z,926.74
2017-02-17T00:26:35.813Z,926.7
2017-02-17T00:26:56.660Z,926.69
2017-02-17T00:27:17.058Z,926.73
2017-02-17T00:27:37.511Z,926.76
2017-02-17T00:27:57.932Z,926.74
2017-02-17T00:28:18.427Z,926.75
2017-02-17T00:28:38.836Z,926.73
2017-02-17T00:28:59.298Z,926.74
2017-02-17T00:29:19.857Z,926.76
2017-02-17T00:29:40.300Z,926.74
2017-02-17T00:30:00.711Z,926.76
2017-02-17T00:30:19.815Z,926.75
2017-02-17T00:30:40.260Z,926.74
2017-02-17T00:31:00.698Z,926.79
2017-02-17T00:31:21.166Z,926.8
2017-02-17T00:31:41.567Z,926.77
2017-02-17T00:32:01.969Z,926.81
2017-02-17T00:32:21.779Z,926.79
2017-02-17T00:32:42.216Z,926.81
2017-02-17T00:33:02.668Z,926.76
2017-02-17T00:33:22.435Z,926.8
2017-02-17T00:33:42.893Z,926.8
2017-02-17T00:34:03.355Z,926.8
2017-02-17T00:34:23.134Z,926.78
2017-02-17T00:34:43.558Z,926.8
2017-02-17T00:35:04.015Z,926.78
2017-02-17T00:35:24.436Z,926.81
2017-02-17T00:35:44.913Z,926.79
2017-02-17T00:36:04.704Z,926.79
2017-02-17T00:36:25.099Z,926.76
2017-02-17T00:36:45.504Z,926.79
2017-02-17T00:37:05.899Z,926.82
2017-02-17T00:37:26.362Z,926.76
2017-02-17T00:37:46.821Z,926.79
2017-02-17T00:38:07.258Z,926.82
2017-02-17T00:38:27.064Z,926.8
2017-02-17T00:38:47.479Z,926.82
2017-02-17T00:39:07.925Z,926.79
2017-02-17T00:39:28.313Z,926.8
2017-02-17T00:39:48.737Z,926.8
2017-02-17T00:40:09.343Z,926.82
2017-02-17T00:40:29.730Z,926.81
2017-02-17T00:40:50.185Z,926.82
2017-02-17T00:41:10.631Z,926.82
2017-02-17T00:41:31.061Z,926.82
2017-02-17T00:41:51.522Z,926.85
2017-02-17T00:42:11.311Z,926.84
2017-02-17T00:42:31.703Z,926.85
2017-02-17T00:42:52.150Z,926.87
2017-02-17T00:43:12.599Z,926.86
2017-02-17T00:43:33.041Z,926.87
2017-02-17T00:43:53.520Z,926.85
2017-02-17T00:44:13.983Z,926.87
2017-02-17T00:44:34.551Z,926.85
2017-02-17T00:44:55.005Z,926.88
2017-02-17T00:45:15.651Z,926.88
2017-02-17T00:45:35.443Z,926.9
2017-02-17T00:45:56.414Z,926.89
2017-02-17T00:46:16.240Z,926.91
2017-02-17T00:46:36.647Z,926.9
2017-02-17T00:46:57.120Z,926.91
2017-02-17T00:47:18.135Z,926.89
2017-02-17T00:47:38.650Z,926.97
2017-02-17T00:47:59.100Z,926.92
2017-02-17T00:48:18.908Z,926.9
2017-02-17T00:48:38.682Z,926.89
2017-02-17T00:48:59.084Z,926.89
2017-02-17T00:49:19.501Z,926.88
2017-02-17T00:49:39.991Z,926.9
2017-02-17T00:50:00.385Z,926.86
2017-02-17T00:50:20.817Z,926.9
2017-02-17T00:50:41.356Z,926.89
2017-02-17T00:51:01.773Z,926.89
2017-02-17T00:51:22.230Z,926.9
2017-02-17T00:51:42.637Z,926.9
2017-02-17T00:52:03.066Z,926.91
2017-02-17T00:52:22.229Z,926.86
2017-02-17T00:52:42.701Z,926.89
2017-02-17T00:53:03.151Z,926.88
2017-02-17T00:53:22.946Z,926.88
2017-02-17T00:53:43.368Z,926.9
2017-02-17T00:54:03.779Z,926.84
2017-02-17T00:54:23.605Z,926.87
2017-02-17T00:54:44.037Z,926.89
2017-02-17T00:55:04.474Z,926.88
2017-02-17T00:55:24.903Z,926.86
2017-02-17T00:55:45.319Z,926.89
2017-02-17T00:56:05.763Z,926.88
2017-02-17T00:56:24.909Z,926.88
2017-02-17T00:56:45.334Z,926.85
2017-02-17T00:57:05.727Z,926.87
2017-02-17T00:57:24.878Z,926.88
2017-02-17T00:57:45.325Z,926.85
2017-02-17T00:58:05.780Z,926.87
2017-02-17T00:58:24.898Z,926.86
2017-02-17T00:58:44.670Z,926.84
2017-02-17T00:59:05.100Z,926.86
2017-02-17T00:59:24.897Z,926.86
2017-02-17T00:59:45.420Z,926.88
2017-02-17T01:00:05.859Z,926.89
2017-02-17T01:00:26.289Z,926.87
2017-02-17T01:00:46.764Z,926.91
2017-02-17T01:01:07.176Z,926.89
2017-02-17T01:01:26.955Z,926.89
2017-02-17T01:01:47.421Z,926.88
2017-02-17T01:02:07.854Z,926.88
2017-02-17T01:02:28.291Z,926.88
2017-02-17T01:02:48.724Z,926.87
2017-02-17T01:03:09.234Z,926.86
2017-02-17T01:03:29.623Z,926.9
2017-02-17T01:03:50.063Z,926.86
2017-02-17T01:04:09.872Z,926.86
2017-02-17T01:04:29.723Z,926.87
2017-02-17T01:04:50.140Z,926.84
2017-02-17T01:05:10.627Z,926.86
2017-02-17T01:05:30.400Z,926.87
2017-02-17T01:05:50.829Z,926.89
2017-02-17T01:06:11.299Z,926.88
2017-02-17T01:06:31.926Z,926.86
2017-02-17T01:06:52.366Z,926.88
2017-02-17T01:07:13.019Z,926.91
2017-02-17T01:07:33.512Z,926.93
2017-02-17T01:07:53.951Z,926.91
2017-02-17T01:08:13.743Z,926.87
2017-02-17T01:08:32.878Z,926.92
2017-02-17T01:08:53.313Z,926.94
2017-02-17T01:09:13.744Z,926.9
2017-02-17T01:09:32.891Z,926.89
2017-02-17T01:09:53.313Z,926.9
2017-02-17T01:10:13.768Z,926.92
2017-02-17T01:10:33.517Z,926.95
2017-02-17T01:10:53.971Z,926.94
2017-02-17T01:11:14.433Z,926.96
2017-02-17T01:11:34.880Z,926.98
2017-02-17T01:11:55.353Z,926.96
2017-02-17T01:12:16.254Z,926.95
2017-02-17T01:12:36.071Z,926.99
2017-02-17T01:12:56.513Z,927
2017-02-17T01:13:16.959Z,927.05
2017-02-17T01:13:36.970Z,927.02
2017-02-17T01:13:57.446Z,927.03
2017-02-17T01:14:17.912Z,927.04
2017-02-17T01:14:38.355Z,927.04
2017-02-17T01:14:58.781Z,927.01
2017-02-17T01:15:18.790Z,927.03
2017-02-17T01:15:39.242Z,926.98
2017-02-17T01:15:59.669Z,927.02
2017-02-17T01:16:19.484Z,927.01
2017-02-17T01:16:39.461Z,927.02
2017-02-17T01:16:59.896Z,927.05
2017-02-17T01:17:20.305Z,927.03
2017-02-17T01:17:40.715Z,927.03
2017-02-17T01:18:01.246Z,927
2017-02-17T01:18:21.038Z,927.05
2017-02-17T01:18:41.551Z,927.04
2017-02-17T01:19:02.049Z,927.03
2017-02-17T01:19:22.441Z,927.04
2017-02-17T01:19:42.844Z,927.04
2017-02-17T01:20:03.269Z,927.04
2017-02-17T01:20:23.698Z,927.06
2017-02-17T01:20:44.133Z,927.08
2017-02-17T01:21:04.551Z,927.08
2017-02-17T01:21:24.998Z,927.06
2017-02-17T01:21:45.491Z,927.06
2017-02-17T01:22:05.949Z,927.08
2017-02-17T01:22:25.722Z,927.07
2017-02-17T01:22:46.127Z,927.08
2017-02-17T01:23:06.556Z,927.07
2017-02-17T01:23:27.030Z,927.09
2017-02-17T01:23:47.471Z,927.07
2017-02-17T01:24:07.939Z,927.04
2017-02-17T01:24:27.725Z,927.04
2017-02-17T01:24:48.168Z,927.07
2017-02-17T01:25:08.630Z,927.06
2017-02-17T01:25:29.085Z,927.08
2017-02-17T01:25:49.523Z,927.09
2017-02-17T01:26:09.923Z,927.08
2017-02-17T01:26:30.359Z,927.08
2017-02-17T01:26:50.777Z,927.1
2017-02-17T01:27:10.557Z,927.11
2017-02-17T01:27:30.346Z,927.12
2017-02-17T01:27:50.769Z,927.16
2017-02-17T01:28:11.235Z,927.12
2017-02-17T01:28:31.658Z,927.11
2017-02-17T01:28:52.067Z,927.09
2017-02-17T01:29:12.502Z,927.07
2017-02-17T01:29:32.909Z,927.09
2017-02-17T01:29:52.689Z,927.09
2017-02-17T01:30:13.130Z,927.1
2017-02-17T01:30:32.292Z,927.09
2017-02-17T01:30:52.766Z,927.08
2017-02-17T01:31:13.167Z,927.12
2017-02-17T01:31:33.632Z,927.12
2017-02-17T01:31:54.080Z,927.15
2017-02-17T01:32:14.566Z,927.15
2017-02-17T01:32:34.959Z,927.11
2017-02-17T01:32:55.463Z,927.14
2017-02-17T01:33:15.917Z,927.1
2017-02-17T01:33:35.731Z,927.08
2017-02-17T01:33:56.188Z,927.09
2017-02-17T01:34:16.629Z,927.08
2017-02-17T01:34:37.056Z,927.08
2017-02-17T01:34:57.530Z,927.06
2017-02-17T01:35:18.006Z,927.05
2017-02-17T01:35:38.437Z,927.07
2017-02-17T01:35:58.867Z,927.07
2017-02-17T01:36:19.257Z,927.03
2017-02-17T01:36:39.809Z,927.09
2017-02-17T01:37:00.272Z,927.04
2017-02-17T01:37:20.071Z,927.07
2017-02-17T01:37:40.548Z,927.07
2017-02-17T01:38:01.004Z,927.05
2017-02-17T01:38:21.446Z,927.04
2017-02-17T01:38:41.826Z,927.06
2017-02-17T01:39:02.204Z,927.09
2017-02-17T01:39:22.642Z,927.09
2017-02-17T01:39:43.029Z,927.09
2017-02-17T01:40:03.491Z,927.06
2017-02-17T01:40:22.625Z,927.09
2017-02-17T01:40:43.015Z,927.06
2017-02-17T01:41:03.456Z,927.05
2017-02-17T01:41:23.914Z,927.09
2017-02-17T01:41:44.355Z,927.08
2017-02-17T01:42:04.805Z,927.08
2017-02-17T01:42:25.255Z,927.09
2017-02-17T01:42:45.675Z,927.06
2017-02-17T01:43:06.088Z,927.07
2017-02-17T01:43:26.530Z,927.08
2017-02-17T01:43:47.055Z,927.05
2017-02-17T01:44:07.507Z,927.1
2017-02-17T01:44:27.944Z,927.09
2017-02-17T01:44:48.390Z,927.09
2017-02-17T01:45:08.837Z,927.08
2017-02-17T01:45:28.592Z,927.08
2017-02-17T01:45:49.017Z,927.08
2017-02-17T01:46:09.926Z,927.09
2017-02-17T01:46:30.374Z,927.09
2017-02-17T01:46:50.789Z,927.08
2017-02-17T01:47:11.234Z,927.09
2017-02-17T01:47:31.043Z,927.11
2017-02-17T01:47:51.500Z,927.07
2017-02-17T01:48:11.946Z,927.1
2017-02-17T01:48:32.421Z,927.12
2017-02-17T01:48:52.952Z,927.12
2017-02-17T01:49:12.765Z,927.12
2017-02-17T01:49:33.261Z,927.09
2017-02-17T01:49:53.663Z,927.12
2017-02-17T01:50:14.295Z,927.1
2017-02-17T01:50:34.752Z,927.13
2017-02-17T01:50:55.197Z,927.12
2017-02-17T01:51:15.008Z,927.12
2017-02-17T01:51:34.774Z,927.1
2017-02-17T01:51:55.463Z,927.13
2017-02-17T01:52:15.920Z,927.09
2017-02-17T01:52:36.363Z,927.13
2017-02-17T01:52:56.847Z,927.11
2017-02-17T01:53:17.266Z,927.12
2017-02-17T01:53:37.673Z,927.14
2017-02-17T01:53:58.070Z,927.12
2017-02-17T01:54:18.496Z,927.11
2017-02-17T01:54:38.929Z,927.14
2017-02-17T01:54:59.316Z,927.11
2017-02-17T01:55:19.748Z,927.1
2017-02-17T01:55:40.187Z,927.09
2017-02-17T01:56:00.014Z,927.08
2017-02-17T01:56:20.422Z,927.09
2017-02-17T01:56:40.850Z,927.1
2017-02-17T01:57:01.350Z,927.09
2017-02-17T01:57:21.207Z,927.13
2017-02-17T01:57:41.710Z,927.13
2017-02-17T01:58:02.143Z,927.13
2017-02-17T01:58:21.951Z,927.16
2017-02-17T01:58:42.370Z,927.15
2017-02-17T01:59:02.814Z,927.11
2017-02-17T01:59:22.632Z,927.08
2017-02-17T01:59:43.111Z,927.07
2017-02-17T02:00:03.648Z,927.08
2017-02-17T02:00:24.066Z,927.1
2017-02-17T02:00:44.467Z,927.1
2017-02-17T02:01:04.883Z,927.11
2017-02-17T02:01:24.678Z,927.16
2017-02-17T02:01:45.127Z,927.17
2017-02-17T02:02:05.544Z,927.13
2017-02-17T02:02:25.988Z,927.15
2017-02-17T02:02:46.393Z,927.13
2017-02-17T02:03:06.807Z,927.14
2017-02-17T02:03:26.596Z,927.15
2017-02-17T02:03:47.030Z,927.16
2017-02-17T02:04:07.479Z,927.12
2017-02-17T02:04:26.643Z,927.14
2017-02-17T02:04:47.058Z,927.12
2017-02-17T02:05:07.510Z,927.13
2017-02-17T02:05:27.956Z,927.12
2017-02-17T02:05:48.375Z,927.14
2017-02-17T02:06:08.837Z,927.18
2017-02-17T02:06:28.660Z,927.14
2017-02-17T02:06:49.218Z,927.15
2017-02-17T02:07:09.652Z,927.12
2017-02-17T02:07:30.124Z,927.16
2017-02-17T02:07:50.578Z,927.15
2017-02-17T02:08:11.018Z,927.17
2017-02-17T02:08:30.820Z,927.16
2017-02-17T02:08:51.227Z,927.17
2017-02-17T02:09:11.004Z,927.15
2017-02-17T02:09:30.811Z,927.13
2017-02-17T02:09:51.247Z,927.17
2017-02-17T02:10:10.362Z,927.18
2017-02-17T02:10:30.133Z,927.16
2017-02-17T02:10:50.598Z,927.2
2017-02-17T02:11:11.047Z,927.15
2017-02-17T02:11:30.844Z,927.16
2017-02-17T02:11:51.284Z,927.13
2017-02-17T02:12:11.699Z,927.13
2017-02-17T02:12:32.152Z,927.16
2017-02-17T02:12:52.572Z,927.17
2017-02-17T02:13:12.981Z,927.17
2017-02-17T02:13:33.458Z,927.14
2017-02-17T02:13:53.896Z,927.15
2017-02-17T02:14:14.307Z,927.14
2017-02-17T02:14:34.076Z,927.15
2017-02-17T02:14:54.515Z,927.12
2017-02-17T02:15:14.935Z,927.11
2017-02-17T02:15:35.401Z,927.1
2017-02-17T02:15:55.837Z,927.1
2017-02-17T02:16:15.648Z,927.13
2017-02-17T02:16:36.058Z,927.12
2017-02-17T02:16:56.521Z,927.11
2017-02-17T02:17:16.314Z,927.1
2017-02-17T02:17:36.747Z,927.12
2017-02-17T02:17:57.219Z,927.11
2017-02-17T02:18:17.636Z,927.1
2017-02-17T02:18:38.029Z,927.07
2017-02-17T02:18:58.507Z,927.04
2017-02-17T02:19:18.984Z,927.08
2017-02-17T02:19:38.791Z,927.12
2017-02-17T02:19:59.257Z,927.08
2017-02-17T02:20:19.904Z,927.05
2017-02-17T02:20:40.348Z,927.11
2017-02-17T02:21:00.793Z,927.07
2017-02-17T02:21:21.220Z,927.1
2017-02-17T02:21:41.653Z,927.1
2017-02-17T02:22:02.214Z,927.05
2017-02-17T02:22:21.984Z,927.1
2017-02-17T02:22:42.397Z,927.06
2017-02-17T02:23:02.821Z,927.05
2017-02-17T02:23:22.580Z,927.07
2017-02-17T02:23:42.339Z,927.07
2017-02-17T02:24:02.724Z,927.07
2017-02-17T02:24:23.162Z,927.07
2017-02-17T02:24:43.592Z,927.07
2017-02-17T02:25:04.007Z,927.05
2017-02-17T02:25:24.443Z,927.07
2017-02-17T02:25:44.895Z,927.06
2017-02-17T02:26:05.348Z,927.07
2017-02-17T02:26:25.772Z,927.08
2017-02-17T02:26:46.273Z,927.06
2017-02-17T02:27:06.700Z,927.08
2017-02-17T02:27:26.462Z,927.05
2017-02-17T02:27:46.874Z,927.05
2017-02-17T02:28:07.305Z,927.04
2017-02-17T02:28:26.436Z,927.05
2017-02-17T02:28:46.844Z,927.05
2017-02-17T02:29:07.317Z,927.06
2017-02-17T02:29:27.747Z,927.05
2017-02-17T02:29:48.173Z,927.02
2017-02-17T02:30:08.646Z,927.02
2017-02-17T02:30:29.080Z,927.04
2017-02-17T02:30:49.580Z,927.05
2017-02-17T02:31:10.056Z,927.05
2017-02-17T02:31:29.226Z,927.02
2017-02-17T02:31:49.825Z,927
2017-02-17T02:32:10.250Z,927.01
2017-02-17T02:32:30.666Z,927.02
2017-02-17T02:32:51.094Z,927.01
2017-02-17T02:33:11.518Z,926.99
2017-02-17T02:33:31.304Z,927
2017-02-17T02:33:51.693Z,927
2017-02-17T02:34:12.146Z,926.97
2017-02-17T02:34:32.612Z,926.98
2017-02-17T02:34:52.391Z,926.97
2017-02-17T02:35:26.608Z,926.98
2017-02-17T02:35:46.414Z,926.98
2017-02-17T02:36:06.832Z,926.96
2017-02-17T02:36:26.627Z,926.93
2017-02-17T02:36:47.064Z,926.96
2017-02-17T02:37:07.507Z,926.96
2017-02-17T02:37:27.893Z,926.95
2017-02-17T02:37:48.299Z,926.93
2017-02-17T02:38:08.724Z,926.92
2017-02-17T02:38:28.508Z,926.93
2017-02-17T02:38:48.973Z,926.94
2017-02-17T02:39:09.416Z,926.94
2017-02-17T02:39:29.852Z,926.89
2017-02-17T02:39:50.298Z,926.9
2017-02-17T02:40:10.720Z,926.92
2017-02-17T02:40:31.154Z,926.88
2017-02-17T02:40:51.562Z,926.88
2017-02-17T02:41:12.008Z,926.9
2017-02-17T02:41:31.193Z,926.89
2017-02-17T02:41:51.734Z,926.86
2017-02-17T02:42:12.182Z,926.88
2017-02-17T02:42:32.669Z,926.89
2017-02-17T02:42:53.092Z,926.89
2017-02-17T02:43:13.562Z,926.91
2017-02-17T02:43:34.043Z,926.88
2017-02-17T02:43:54.509Z,926.9
2017-02-17T02:44:14.281Z,926.89
2017-02-17T02:44:34.726Z,926.9
2017-02-17T02:44:55.209Z,926.89
2017-02-17T02:45:15.687Z,926.9
2017-02-17T02:45:36.131Z,926.84
2017-02-17T02:45:56.559Z,926.82
2017-02-17T02:46:16.312Z,926.85
2017-02-17T02:46:36.107Z,926.86
2017-02-17T02:46:56.684Z,926.88
2017-02-17T02:47:16.456Z,926.86
2017-02-17T02:47:36.216Z,926.82
2017-02-17T02:47:56.649Z,926.79
2017-02-17T02:48:17.139Z,926.77
2017-02-17T02:48:37.551Z,926.79
2017-02-17T02:48:58.017Z,926.76
2017-02-17T02:49:18.455Z,926.76
2017-02-17T02:49:37.591Z,926.78
2017-02-17T02:49:58.019Z,926.75
2017-02-17T02:50:17.840Z,926.72
2017-02-17T02:50:38.320Z,926.75
2017-02-17T02:50:58.068Z,926.75
2017-02-17T02:51:17.875Z,926.75
2017-02-17T02:51:38.272Z,926.75
2017-02-17T02:51:58.896Z,926.78
2017-02-17T02:52:19.337Z,926.77
2017-02-17T02:52:39.766Z,926.76
2017-02-17T02:53:00.189Z,926.8
2017-02-17T02:53:20.635Z,926.77
2017-02-17T02:53:40.438Z,926.77
2017-02-17T02:54:00.853Z,926.77
2017-02-17T02:54:21.281Z,926.76
2017-02-17T02:54:41.726Z,926.76
2017-02-17T02:55:02.179Z,926.78
2017-02-17T02:55:22.600Z,926.76
2017-02-17T02:55:43.043Z,926.78
2017-02-17T02:56:03.607Z,926.77
2017-02-17T02:56:23.460Z,926.79
2017-02-17T02:56:43.230Z,926.78
2017-02-17T02:57:03.130Z,926.77
2017-02-17T02:57:23.581Z,926.74
2017-02-17T02:57:44.017Z,926.74
2017-02-17T02:58:04.484Z,926.75
2017-02-17T02:58:24.258Z,926.78
2017-02-17T02:58:44.708Z,926.74
2017-02-17T02:59:05.100Z,926.72
2017-02-17T02:59:25.533Z,926.74
2017-02-17T02:59:45.972Z,926.72
2017-02-17T03:00:06.426Z,926.71
2017-02-17T03:00:25.626Z,926.7
2017-02-17T03:00:46.972Z,926.7
2017-02-17T03:01:07.445Z,926.66
2017-02-17T03:01:27.871Z,926.69
2017-02-17T03:01:48.304Z,926.67
2017-02-17T03:02:08.739Z,926.68
2017-02-17T03:02:28.507Z,926.66
2017-02-17T03:02:48.904Z,926.66
2017-02-17T03:03:09.347Z,926.66
2017-02-17T03:03:29.779Z,926.66
2017-02-17T03:03:50.205Z,926.68
2017-02-17T03:04:10.012Z,926.64
2017-02-17T03:04:29.851Z,926.61
2017-02-17T03:04:50.283Z,926.63
2017-02-17T03:05:10.273Z,926.6
2017-02-17T03:05:30.041Z,926.58
2017-02-17T03:05:50.432Z,926.63
2017-02-17T03:06:10.906Z,926.61
2017-02-17T03:06:31.287Z,926.6
2017-02-17T03:06:51.751Z,926.58
2017-02-17T03:07:12.180Z,926.56
2017-02-17T03:07:32.638Z,926.56
2017-02-17T03:07:53.046Z,926.58
2017-02-17T03:08:13.499Z,926.6
2017-02-17T03:08:33.939Z,926.54
2017-02-17T03:08:54.382Z,926.54
2017-02-17T03:09:14.830Z,926.56
2017-02-17T03:09:35.266Z,926.56
2017-02-17T03:09:55.682Z,926.53
2017-02-17T03:10:16.309Z,926.53
2017-02-17T03:10:36.771Z,926.6
2017-02-17T03:10:57.250Z,926.58
2017-02-17T03:11:17.702Z,926.55
2017-02-17T03:11:37.523Z,926.58
2017-02-17T03:11:57.971Z,926.58
2017-02-17T03:12:17.750Z,926.56
2017-02-17T03:12:37.523Z,926.56
2017-02-17T03:12:57.967Z,926.56
2017-02-17T03:13:18.457Z,926.56
2017-02-17T03:13:38.868Z,926.56
2017-02-17T03:13:59.295Z,926.57
2017-02-17T03:14:19.722Z,926.53
2017-02-17T03:14:40.188Z,926.53
2017-02-17T03:15:00.661Z,926.52
2017-02-17T03:15:21.097Z,926.55
2017-02-17T03:15:40.910Z,926.5
2017-02-17T03:16:01.334Z,926.52
2017-02-17T03:16:21.737Z,926.54
2017-02-17T03:16:42.167Z,926.51
2017-02-17T03:17:03.011Z,926.55
2017-02-17T03:17:23.428Z,926.53
2017-02-17T03:17:43.856Z,926.5
2017-02-17T03:18:04.332Z,926.53
2017-02-17T03:18:24.749Z,926.5
2017-02-17T03:18:44.567Z,926.5
2017-02-17T03:19:04.989Z,926.51
2017-02-17T03:19:25.435Z,926.48
2017-02-17T03:19:45.906Z,926.45
2017-02-17T03:20:06.384Z,926.43
2017-02-17T03:20:24.869Z,926.45
2017-02-17T03:20:44.716Z,926.43
2017-02-17T03:21:04.521Z,926.46
2017-02-17T03:21:24.975Z,926.43
2017-02-17T03:21:44.767Z,926.47
2017-02-17T03:22:04.673Z,926.44
2017-02-17T03:22:25.106Z,926.45
2017-02-17T03:22:45.526Z,926.45
2017-02-17T03:23:05.977Z,926.44
2017-02-17T03:23:26.416Z,926.42
2017-02-17T03:23:46.837Z,926.43
2017-02-17T03:24:07.262Z,926.46
2017-02-17T03:24:27.673Z,926.41
2017-02-17T03:24:48.117Z,926.4
2017-02-17T03:25:08.551Z,926.4
2017-02-17T03:25:28.335Z,926.39
2017-02-17T03:25:48.781Z,926.39
2017-02-17T03:26:09.205Z,926.37
2017-02-17T03:26:29.686Z,926.36
2017-02-17T03:26:50.113Z,926.38
2017-02-17T03:27:10.550Z,926.37
2017-02-17T03:27:30.995Z,926.38
2017-02-17T03:27:51.407Z,926.36
2017-02-17T03:28:11.838Z,926.35
2017-02-17T03:28:31.673Z,926.35
2017-02-17T03:28:52.086Z,926.36
2017-02-17T03:29:12.490Z,926.3
2017-02-17T03:29:31.636Z,926.3
2017-02-17T03:29:52.057Z,926.32
2017-02-17T03:30:12.096Z,926.31
2017-02-17T03:30:31.884Z,926.32
2017-02-17T03:30:52.317Z,926.29
2017-02-17T03:31:12.760Z,926.29
2017-02-17T03:31:33.633Z,926.31
2017-02-17T03:31:54.051Z,926.3
2017-02-17T03:32:14.489Z,926.28
2017-02-17T03:32:34.994Z,926.28
2017-02-17T03:32:55.434Z,926.24
2017-02-17T03:33:15.850Z,926.21
2017-02-17T03:33:36.342Z,926.24
2017-02-17T03:33:56.806Z,926.25
2017-02-17T03:34:17.217Z,926.25
2017-02-17T03:34:36.351Z,926.28
2017-02-17T03:34:56.767Z,926.28
2017-02-17T03:35:16.578Z,926.23
2017-02-17T03:35:36.995Z,926.28
2017-02-17T03:35:57.401Z,926.31
2017-02-17T03:36:17.893Z,926.25
2017-02-17T03:36:38.286Z,926.27
2017-02-17T03:37:24.269Z,926.26
2017-02-17T03:37:44.036Z,926.26
2017-02-17T03:38:04.450Z,926.26
2017-02-17T03:38:23.613Z,926.24
2017-02-17T03:38:43.434Z,926.25
2017-02-17T03:39:03.871Z,926.26
2017-02-17T03:39:24.293Z,926.25
2017-02-17T03:39:44.711Z,926.25
2017-02-17T03:40:05.178Z,926.27
2017-02-17T03:40:25.590Z,926.23
2017-02-17T03:40:46.004Z,926.23
2017-02-17T03:41:06.464Z,926.23
2017-02-17T03:41:26.229Z,926.26
2017-02-17T03:41:46.698Z,926.22
2017-02-17T03:42:07.160Z,926.21
2017-02-17T03:42:26.984Z,926.23
2017-02-17T03:42:47.428Z,926.24
2017-02-17T03:43:07.876Z,926.26
2017-02-17T03:43:28.288Z,926.22
2017-02-17T03:43:48.747Z,926.23
2017-02-17T03:44:09.211Z,926.22
2017-02-17T03:44:29.001Z,926.24
2017-02-17T03:44:49.423Z,926.25
2017-02-17T03:45:10.075Z,926.27
2017-02-17T03:45:29.195Z,926.21
2017-02-17T03:45:49.635Z,926.2
2017-02-17T03:46:10.042Z,926.22
2017-02-17T03:46:29.196Z,926.2
2017-02-17T03:46:48.977Z,926.21
2017-02-17T03:47:09.383Z,926.22
2017-02-17T03:47:28.791Z,926.2
2017-02-17T03:47:49.171Z,926.22
2017-02-17T03:48:09.618Z,926.23
2017-02-17T03:48:29.444Z,926.19
2017-02-17T03:48:49.826Z,926.23
2017-02-17T03:49:10.214Z,926.23
2017-02-17T03:49:29.956Z,926.21
2017-02-17T03:49:50.355Z,926.2
2017-02-17T03:50:10.802Z,926.21
2017-02-17T03:50:31.252Z,926.14
2017-02-17T03:50:51.702Z,926.17
2017-02-17T03:51:12.096Z,926.16
2017-02-17T03:51:32.501Z,926.13
2017-02-17T03:51:52.939Z,926.12
2017-02-17T03:52:12.760Z,926.15
2017-02-17T03:52:33.564Z,926.12
2017-02-17T03:52:54.022Z,926.11
2017-02-17T03:53:14.431Z,926.13
2017-02-17T03:53:34.884Z,926.1
2017-02-17T03:53:55.382Z,926.11
2017-02-17T03:54:15.836Z,926.14
2017-02-17T03:54:36.295Z,926.11
2017-02-17T03:54:56.739Z,926.15
2017-02-17T03:55:30.929Z,926.12
2017-02-17T03:55:51.352Z,926.12
2017-02-17T03:56:11.797Z,926.11
2017-02-17T03:56:31.566Z,926.11
2017-02-17T03:56:52.013Z,926.1
2017-02-17T03:57:12.473Z,926.08
2017-02-17T03:57:32.919Z,926.11
2017-02-17T03:57:53.363Z,926.11
2017-02-17T03:58:13.200Z,926.09
2017-02-17T03:58:33.673Z,926.12
2017-02-17T03:58:54.069Z,926.1
2017-02-17T03:59:14.516Z,926.09
2017-02-17T03:59:34.959Z,926.1
2017-02-17T03:59:55.403Z,926.13
2017-02-17T04:00:15.167Z,926.13
2017-02-17T04:00:35.638Z,926.14
2017-02-17T04:00:56.084Z,926.13
2017-02-17T04:01:16.532Z,926.15
2017-02-17T04:01:36.291Z,926.15
2017-02-17T04:01:56.774Z,926.11
2017-02-17T04:02:16.562Z,926.12
2017-02-17T04:02:36.371Z,926.12
2017-02-17T04:02:56.880Z,926.16
2017-02-17T04:03:17.302Z,926.15
2017-02-17T04:03:37.732Z,926.13
2017-02-17T04:03:58.219Z,926.13
2017-02-17T04:04:17.990Z,926.14
2017-02-17T04:04:38.424Z,926.11
2017-02-17T04:04:58.900Z,926.14
2017-02-17T04:05:19.581Z,926.15
2017-02-17T04:05:40.044Z,926.18
2017-02-17T04:06:00.488Z,926.15
2017-02-17T04:06:20.922Z,926.13
2017-02-17T04:06:41.319Z,926.14
2017-02-17T04:07:01.785Z,926.14
2017-02-17T04:07:22.217Z,926.11
2017-02-17T04:07:42.018Z,926.13
2017-02-17T04:08:02.456Z,926.11
2017-02-17T04:08:21.592Z,926.09
2017-02-17T04:08:42.031Z,926.09
2017-02-17T04:09:02.465Z,926.12
2017-02-17T04:09:22.883Z,926.07
2017-02-17T04:09:43.319Z,926.05
2017-02-17T04:10:03.801Z,926.06
2017-02-17T04:10:23.576Z,926.04
2017-02-17T04:10:43.370Z,926.05
2017-02-17T04:11:03.858Z,926.01
2017-02-17T04:11:24.341Z,925.98
2017-02-17T04:11:44.770Z,926
2017-02-17T04:12:05.158Z,925.98
2017-02-17T04:12:24.984Z,925.99
2017-02-17T04:12:45.447Z,925.98
2017-02-17T04:13:05.882Z,925.96
2017-02-17T04:13:26.340Z,925.99
2017-02-17T04:13:46.781Z,925.97
2017-02-17T04:14:07.216Z,925.99
2017-02-17T04:14:26.372Z,925.94
2017-02-17T04:14:46.839Z,925.94